createdAt,value
2022-12-13T00:00:33.725Z,988.47
2022-12-13T00:01:33.802Z,988.47
2022-12-13T00:02:33.756Z,988.43
2022-12-13T00:03:33.780Z,988.46
2022-12-13T00:04:33.691Z,988.42
2022-12-13T00:05:33.672Z,988.43
2022-12-13T00:06:33.673Z,988.42
2022-12-13T00:07:33.642Z,988.39
2022-12-13T00:08:33.655Z,988.35
2022-12-13T00:09:33.752Z,988.33
2022-12-13T00:10:33.608Z,988.35
2022-12-13T00:11:33.589Z,988.29
2022-12-13T00:12:33.578Z,988.34
2022-12-13T00:13:33.629Z,988.31
2022-12-13T00:14:33.575Z,988.26
2022-12-13T00:15:33.550Z,988.27
2022-12-13T00:16:33.614Z,988.26
2022-12-13T00:17:33.582Z,988.24
2022-12-13T00:18:33.530Z,988.27
2022-12-13T00:19:33.508Z,988.23
2022-12-13T00:20:33.479Z,988.24
2022-12-13T00:21:33.529Z,988.23
2022-12-13T00:22:33.836Z,988.26
2022-12-13T00:23:33.482Z,988.26
2022-12-13T00:24:33.438Z,988.24
2022-12-13T00:25:33.417Z,988.23
2022-12-13T00:26:33.397Z,988.22
2022-12-13T00:27:33.386Z,988.24
2022-12-13T00:28:33.379Z,988.21
2022-12-13T00:29:33.457Z,988.20
2022-12-13T00:30:33.448Z,988.24
2022-12-13T00:32:34.327Z,988.20
2022-12-13T00:33:33.316Z,988.21
2022-12-13T00:34:33.336Z,988.14
2022-12-13T00:35:33.294Z,988.18
2022-12-13T00:36:33.290Z,988.18
2022-12-13T00:37:33.333Z,988.17
2022-12-13T00:38:33.256Z,988.20
2022-12-13T00:39:33.285Z,988.16
2022-12-13T00:40:33.234Z,988.15
2022-12-13T00:41:33.233Z,988.15
2022-12-13T00:42:33.203Z,988.14
2022-12-13T00:43:33.194Z,988.12
2022-12-13T00:44:33.210Z,988.10
2022-12-13T00:45:33.176Z,988.09
2022-12-13T00:46:33.244Z,988.09
2022-12-13T00:47:33.144Z,988.06
2022-12-13T00:48:33.172Z,988.07
2022-12-13T00:49:33.154Z,988.07
2022-12-13T00:50:33.108Z,988.05
2022-12-13T00:51:33.104Z,988.07
2022-12-13T00:52:33.081Z,988.09
2022-12-13T00:53:33.071Z,988.09
2022-12-13T00:54:33.092Z,988.06
2022-12-13T00:55:33.041Z,988.08
2022-12-13T00:56:33.041Z,988.11
2022-12-13T00:57:33.028Z,988.11
2022-12-13T00:58:33.010Z,988.09
2022-12-13T00:59:33.094Z,988.12
2022-12-13T01:00:32.984Z,988.08
2022-12-13T01:01:33.052Z,988.07
2022-12-13T01:02:32.967Z,988.07
2022-12-13T01:03:33.026Z,988.06
2022-12-13T01:04:32.958Z,988.08
2022-12-13T01:06:12.853Z,988.12
2022-12-13T01:06:33.910Z,988.01
2022-12-13T01:07:32.905Z,988.04
2022-12-13T01:08:32.949Z,988.07
2022-12-13T01:09:33.006Z,988.04
2022-12-13T01:10:32.872Z,988.04
2022-12-13T01:11:32.848Z,988.02
2022-12-13T01:12:32.847Z,988.01
2022-12-13T01:13:32.828Z,988.00
2022-12-13T01:14:32.868Z,988.02
2022-12-13T01:15:32.807Z,988.02
2022-12-13T01:16:32.823Z,988.06
2022-12-13T01:17:32.776Z,988.04
2022-12-13T01:18:32.777Z,988.03
2022-12-13T01:19:32.774Z,988.05
2022-12-13T01:20:32.783Z,988.02
2022-12-13T01:21:32.734Z,988.04
2022-12-13T01:22:32.717Z,988.02
2022-12-13T01:23:32.719Z,988.00
2022-12-13T01:24:32.723Z,988.03
2022-12-13T01:25:32.676Z,987.99
2022-12-13T01:26:32.664Z,987.99
2022-12-13T01:27:32.760Z,987.98
2022-12-13T01:28:32.654Z,988.04
2022-12-13T01:29:32.664Z,988.05
2022-12-13T01:30:32.699Z,988.06
2022-12-13T01:31:32.607Z,988.06
2022-12-13T01:32:32.615Z,988.04
2022-12-13T01:33:32.581Z,988.06
2022-12-13T01:34:32.594Z,988.08
2022-12-13T01:35:32.592Z,988.03
2022-12-13T01:36:32.539Z,988.03
2022-12-13T01:37:37.367Z,988.01
2022-12-13T01:38:37.852Z,988.00
2022-12-13T01:39:37.879Z,988.01
2022-12-13T01:40:32.492Z,988.03
2022-12-13T01:41:33.481Z,988.01
2022-12-13T01:42:32.468Z,988.00
2022-12-13T01:43:32.459Z,987.97
2022-12-13T01:44:32.466Z,987.97
2022-12-13T01:45:32.438Z,987.94
2022-12-13T01:46:32.448Z,987.99
2022-12-13T01:47:32.419Z,987.97
2022-12-13T01:48:32.389Z,988.04
2022-12-13T01:49:32.410Z,988.01
2022-12-13T01:50:32.367Z,987.98
2022-12-13T01:51:32.361Z,987.96
2022-12-13T01:52:32.338Z,987.95
2022-12-13T01:53:32.339Z,987.94
2022-12-13T01:54:33.655Z,987.96
2022-12-13T01:55:32.319Z,987.94
2022-12-13T01:56:32.487Z,987.92
2022-12-13T01:57:32.285Z,987.93
2022-12-13T01:58:32.276Z,987.86
2022-12-13T01:59:32.286Z,987.89
2022-12-13T02:00:32.272Z,987.91
2022-12-13T02:01:32.328Z,987.91
2022-12-13T02:02:32.224Z,987.93
2022-12-13T02:03:32.219Z,987.86
2022-12-13T02:04:32.290Z,987.91
2022-12-13T02:05:32.221Z,987.92
2022-12-13T02:06:32.166Z,987.94
2022-12-13T02:07:32.210Z,987.89
2022-12-13T02:08:35.783Z,987.90
2022-12-13T02:09:32.414Z,987.90
2022-12-13T02:10:32.114Z,987.95
2022-12-13T02:11:32.110Z,987.93
2022-12-13T02:12:32.095Z,987.87
2022-12-13T02:13:32.083Z,987.89
2022-12-13T02:14:32.093Z,987.90
2022-12-13T02:15:32.099Z,987.89
2022-12-13T02:16:32.050Z,987.89
2022-12-13T02:17:32.167Z,987.85
2022-12-13T02:18:32.019Z,987.84
2022-12-13T02:19:32.052Z,987.85
2022-12-13T02:20:31.999Z,987.87
2022-12-13T02:21:31.982Z,987.81
2022-12-13T02:22:31.982Z,987.87
2022-12-13T02:23:32.031Z,987.84
2022-12-13T02:24:31.974Z,987.86
2022-12-13T02:25:31.932Z,987.89
2022-12-13T02:26:31.922Z,987.88
2022-12-13T02:27:32.001Z,987.95
2022-12-13T02:28:32.316Z,987.92
2022-12-13T02:29:31.921Z,987.90
2022-12-13T02:30:31.882Z,987.90
2022-12-13T02:31:31.878Z,987.94
2022-12-13T02:32:31.839Z,987.92
2022-12-13T02:33:31.840Z,987.96
2022-12-13T02:34:31.852Z,987.93
2022-12-13T02:35:32.793Z,987.91
2022-12-13T02:36:36.174Z,987.94
2022-12-13T02:37:32.830Z,987.90
2022-12-13T02:38:31.842Z,987.90
2022-12-13T02:39:31.798Z,987.86
2022-12-13T02:40:31.762Z,987.87
2022-12-13T02:41:31.746Z,987.83
2022-12-13T02:42:31.736Z,987.81
2022-12-13T02:43:33.958Z,987.82
2022-12-13T02:44:31.726Z,987.84
2022-12-13T02:45:31.696Z,987.79
2022-12-13T02:46:31.713Z,987.85
2022-12-13T02:47:31.668Z,987.85
2022-12-13T02:48:31.655Z,987.82
2022-12-13T02:49:31.699Z,987.81
2022-12-13T02:50:31.625Z,987.82
2022-12-13T02:51:31.625Z,987.82
2022-12-13T02:52:31.601Z,987.79
2022-12-13T02:53:33.616Z,987.80
2022-12-13T02:54:31.609Z,987.72
2022-12-13T02:55:31.564Z,987.78
2022-12-13T02:56:32.357Z,987.80
2022-12-13T02:57:31.565Z,987.73
2022-12-13T02:58:31.531Z,987.77
2022-12-13T02:59:31.563Z,987.76
2022-12-13T03:00:31.513Z,987.78
2022-12-13T03:01:31.647Z,987.77
2022-12-13T03:02:32.591Z,987.79
2022-12-13T03:03:31.533Z,987.77
2022-12-13T03:04:31.616Z,987.79
2022-12-13T03:05:31.444Z,987.80
2022-12-13T03:06:34.300Z,987.81
2022-12-13T03:07:31.423Z,987.80
2022-12-13T03:08:31.489Z,987.77
2022-12-13T03:09:31.422Z,987.80
2022-12-13T03:10:31.378Z,987.77
2022-12-13T03:11:31.368Z,987.81
2022-12-13T03:12:31.354Z,987.78
2022-12-13T03:13:31.352Z,987.81
2022-12-13T03:14:31.886Z,987.81
2022-12-13T03:15:31.338Z,987.77
2022-12-13T03:16:31.346Z,987.76
2022-12-13T03:17:31.301Z,987.76
2022-12-13T03:18:31.279Z,987.75
2022-12-13T03:19:31.311Z,987.77
2022-12-13T03:20:31.279Z,987.73
2022-12-13T03:21:31.260Z,987.74
2022-12-13T03:22:31.227Z,987.74
2022-12-13T03:23:31.228Z,987.78
2022-12-13T03:24:31.236Z,987.81
2022-12-13T03:25:32.429Z,987.81
2022-12-13T03:26:31.343Z,987.81
2022-12-13T03:27:31.187Z,987.83
2022-12-13T03:28:31.156Z,987.81
2022-12-13T03:29:31.149Z,987.82
2022-12-13T03:30:31.180Z,987.81
2022-12-13T03:31:31.183Z,987.77
2022-12-13T03:32:31.105Z,987.77
2022-12-13T03:33:31.086Z,987.75
2022-12-13T03:34:44.000Z,987.79
2022-12-13T03:35:35.020Z,987.79
2022-12-13T03:36:32.065Z,987.76
2022-12-13T03:37:31.048Z,987.72
2022-12-13T03:38:31.047Z,987.74
2022-12-13T03:39:31.014Z,987.70
2022-12-13T03:40:31.035Z,987.70
2022-12-13T03:41:30.995Z,987.71
2022-12-13T03:42:31.058Z,987.72
2022-12-13T03:43:30.962Z,987.72
2022-12-13T03:44:31.564Z,987.72
2022-12-13T03:45:31.052Z,987.73
2022-12-13T03:46:30.959Z,987.69
2022-12-13T03:47:30.913Z,987.71
2022-12-13T03:48:30.912Z,987.73
2022-12-13T03:49:35.331Z,987.65
2022-12-13T03:50:31.919Z,987.71
2022-12-13T03:51:30.899Z,987.66
2022-12-13T03:52:30.872Z,987.68
2022-12-13T03:53:33.755Z,987.72
2022-12-13T03:54:30.857Z,987.70
2022-12-13T03:55:30.855Z,987.66
2022-12-13T03:56:30.819Z,987.66
2022-12-13T03:57:31.611Z,987.63
2022-12-13T03:58:35.764Z,987.66
2022-12-13T03:59:31.906Z,987.63
2022-12-13T04:00:31.599Z,987.61
2022-12-13T04:01:30.781Z,987.58
2022-12-13T04:02:35.369Z,987.54
2022-12-13T04:03:30.737Z,987.53
2022-12-13T04:04:30.708Z,987.55
2022-12-13T04:05:30.722Z,987.54
2022-12-13T04:06:32.942Z,987.61
2022-12-13T04:07:34.089Z,987.62
2022-12-13T04:08:30.687Z,987.66
2022-12-13T04:09:30.664Z,987.65
2022-12-13T04:10:30.666Z,987.69
2022-12-13T04:11:30.626Z,987.67
2022-12-13T04:12:30.671Z,987.69
2022-12-13T04:13:30.597Z,987.70
2022-12-13T04:14:30.586Z,987.68
2022-12-13T04:15:30.598Z,987.70
2022-12-13T04:16:30.594Z,987.71
2022-12-13T04:17:30.547Z,987.66
2022-12-13T04:18:30.543Z,987.69
2022-12-13T04:19:30.516Z,987.67
2022-12-13T04:20:30.544Z,987.70
2022-12-13T04:21:30.575Z,987.73
2022-12-13T04:22:30.484Z,987.72
2022-12-13T04:23:30.474Z,987.74
2022-12-13T04:24:31.654Z,987.77
2022-12-13T04:25:30.471Z,987.73
2022-12-13T04:26:30.524Z,987.73
2022-12-13T04:27:30.426Z,987.75
2022-12-13T04:28:30.417Z,987.75
2022-12-13T04:29:34.451Z,987.69
2022-12-13T04:30:30.412Z,987.70
2022-12-13T04:31:30.402Z,987.71
2022-12-13T04:32:30.372Z,987.70
2022-12-13T04:33:30.341Z,987.71
2022-12-13T04:34:36.542Z,987.72
2022-12-13T04:35:31.350Z,987.70
2022-12-13T04:36:32.245Z,987.66
2022-12-13T04:37:30.302Z,987.68
2022-12-13T04:38:30.358Z,987.67
2022-12-13T04:39:34.336Z,987.71
2022-12-13T04:40:30.420Z,987.69
2022-12-13T04:41:34.227Z,987.67
2022-12-13T04:42:30.246Z,987.68
2022-12-13T04:43:30.459Z,987.65
2022-12-13T04:44:33.730Z,987.65
2022-12-13T04:45:31.361Z,987.64
2022-12-13T04:46:30.187Z,987.65
2022-12-13T04:47:30.169Z,987.63
2022-12-13T04:48:30.488Z,987.64
2022-12-13T04:49:30.199Z,987.63
2022-12-13T04:50:30.181Z,987.60
2022-12-13T04:51:30.128Z,987.58
2022-12-13T04:52:30.171Z,987.56
2022-12-13T04:53:30.184Z,987.61
2022-12-13T04:54:35.637Z,987.55
2022-12-13T04:55:31.101Z,987.60
2022-12-13T04:56:30.076Z,987.61
2022-12-13T04:57:30.113Z,987.60
2022-12-13T04:58:30.887Z,987.57
2022-12-13T04:59:31.422Z,987.61
2022-12-13T05:00:30.946Z,987.61
2022-12-13T05:01:30.060Z,987.64
2022-12-13T05:02:30.021Z,987.68
2022-12-13T05:03:29.995Z,987.68
2022-12-13T05:04:33.242Z,987.64
2022-12-13T05:05:29.977Z,987.67
2022-12-13T05:06:29.946Z,987.69
2022-12-13T05:07:30.015Z,987.62
2022-12-13T05:08:30.009Z,987.67
2022-12-13T05:09:29.983Z,987.64
2022-12-13T05:10:36.179Z,987.65
2022-12-13T05:11:35.605Z,987.62
2022-12-13T05:12:30.875Z,987.59
2022-12-13T05:13:29.992Z,987.59
2022-12-13T05:14:30.630Z,987.58
2022-12-13T05:15:29.865Z,987.58
2022-12-13T05:16:29.877Z,987.56
2022-12-13T05:17:29.803Z,987.61
2022-12-13T05:18:29.813Z,987.55
2022-12-13T05:19:30.414Z,987.54
2022-12-13T05:20:29.803Z,987.62
2022-12-13T05:21:29.845Z,987.65
2022-12-13T05:22:30.787Z,987.58
2022-12-13T05:23:29.730Z,987.61
2022-12-13T05:24:29.832Z,987.59
2022-12-13T05:25:29.782Z,987.61
2022-12-13T05:26:31.259Z,987.60
2022-12-13T05:27:29.860Z,987.57
2022-12-13T05:28:29.819Z,987.57
2022-12-13T05:29:29.867Z,987.55
2022-12-13T05:30:29.878Z,987.54
2022-12-13T05:31:29.674Z,987.55
2022-12-13T05:32:29.728Z,987.54
2022-12-13T05:33:29.613Z,987.53
2022-12-13T05:34:29.729Z,987.55
2022-12-13T05:35:29.658Z,987.51
2022-12-13T05:36:29.603Z,987.48
2022-12-13T05:37:29.557Z,987.51
2022-12-13T05:38:30.615Z,987.49
2022-12-13T05:39:30.274Z,987.50
2022-12-13T05:40:29.534Z,987.48
2022-12-13T05:41:29.536Z,987.45
2022-12-13T05:42:29.531Z,987.48
2022-12-13T05:43:42.940Z,987.47
2022-12-13T05:44:30.491Z,987.46
2022-12-13T05:45:29.469Z,987.42
2022-12-13T05:46:29.823Z,987.43
2022-12-13T05:47:29.436Z,987.45
2022-12-13T05:48:29.433Z,987.45
2022-12-13T05:49:29.436Z,987.42
2022-12-13T05:50:29.418Z,987.40
2022-12-13T05:51:29.450Z,987.38
2022-12-13T05:52:30.850Z,987.40
2022-12-13T05:53:30.532Z,987.37
2022-12-13T05:54:29.621Z,987.36
2022-12-13T05:55:29.352Z,987.35
2022-12-13T05:56:29.483Z,987.40
2022-12-13T05:57:29.323Z,987.41
2022-12-13T05:58:29.823Z,987.41
2022-12-13T05:59:30.372Z,987.42
2022-12-13T06:00:30.906Z,987.43
2022-12-13T06:01:29.302Z,987.45
2022-12-13T06:02:29.324Z,987.45
2022-12-13T06:03:29.295Z,987.46
2022-12-13T06:04:29.234Z,987.48
2022-12-13T06:05:29.219Z,987.47
2022-12-13T06:06:29.268Z,987.45
2022-12-13T06:07:29.199Z,987.45
2022-12-13T06:08:29.221Z,987.44
2022-12-13T06:09:29.169Z,987.42
2022-12-13T06:10:34.627Z,987.43
2022-12-13T06:11:31.803Z,987.37
2022-12-13T06:12:32.582Z,987.39
2022-12-13T06:13:32.044Z,987.32
2022-12-13T06:14:29.113Z,987.42
2022-12-13T06:15:29.119Z,987.40
2022-12-13T06:16:30.189Z,987.42
2022-12-13T06:17:29.087Z,987.34
2022-12-13T06:18:29.059Z,987.40
2022-12-13T06:19:29.048Z,987.41
2022-12-13T06:20:29.026Z,987.39
2022-12-13T06:21:40.652Z,987.38
2022-12-13T06:22:30.010Z,987.43
2022-12-13T06:23:28.990Z,987.40
2022-12-13T06:24:28.985Z,987.40
2022-12-13T06:25:31.322Z,987.37
2022-12-13T06:26:29.133Z,987.41
2022-12-13T06:27:28.949Z,987.37
2022-12-13T06:28:29.176Z,987.33
2022-12-13T06:29:29.008Z,987.39
2022-12-13T06:30:29.027Z,987.41
2022-12-13T06:31:28.985Z,987.40
2022-12-13T06:32:28.894Z,987.45
2022-12-13T06:33:28.891Z,987.41
2022-12-13T06:34:28.866Z,987.40
2022-12-13T06:35:30.219Z,987.42
2022-12-13T06:36:28.896Z,987.43
2022-12-13T06:37:29.033Z,987.43
2022-12-13T06:38:31.469Z,987.39
2022-12-13T06:39:32.871Z,987.41
2022-12-13T06:40:28.786Z,987.39
2022-12-13T06:41:32.097Z,987.34
2022-12-13T06:42:28.775Z,987.40
2022-12-13T06:43:28.774Z,987.38
2022-12-13T06:44:28.970Z,987.35
2022-12-13T06:45:28.692Z,987.36
2022-12-13T06:46:28.726Z,987.32
2022-12-13T06:47:31.646Z,987.36
2022-12-13T06:48:28.799Z,987.42
2022-12-13T06:49:32.427Z,987.40
2022-12-13T06:50:28.918Z,987.39
2022-12-13T06:51:33.118Z,987.39
2022-12-13T06:52:28.641Z,987.35
2022-12-13T06:53:28.654Z,987.36
2022-12-13T06:54:29.462Z,987.38
2022-12-13T06:55:28.562Z,987.40
2022-12-13T06:56:28.816Z,987.39
2022-12-13T06:57:28.520Z,987.38
2022-12-13T06:58:28.621Z,987.36
2022-12-13T06:59:28.490Z,987.41
2022-12-13T07:00:35.562Z,987.41
2022-12-13T07:01:37.622Z,987.39
2022-12-13T07:02:30.210Z,987.44
2022-12-13T07:03:28.537Z,987.38
2022-12-13T07:04:29.611Z,987.39
2022-12-13T07:05:28.430Z,987.41
2022-12-13T07:06:28.436Z,987.42
2022-12-13T07:07:28.396Z,987.41
2022-12-13T07:08:28.668Z,987.46
2022-12-13T07:09:28.367Z,987.41
2022-12-13T07:10:28.381Z,987.39
2022-12-13T07:11:28.505Z,987.39
2022-12-13T07:12:28.368Z,987.42
2022-12-13T07:13:28.324Z,987.42
2022-12-13T07:14:28.808Z,987.39
2022-12-13T07:15:28.626Z,987.33
2022-12-13T07:16:28.328Z,987.38
2022-12-13T07:17:31.801Z,987.35
2022-12-13T07:18:29.367Z,987.40
2022-12-13T07:19:28.354Z,987.35
2022-12-13T07:20:29.245Z,987.41
2022-12-13T07:21:28.253Z,987.37
2022-12-13T07:22:28.225Z,987.39
2022-12-13T07:23:28.199Z,987.38
2022-12-13T07:24:28.263Z,987.43
2022-12-13T07:25:29.671Z,987.39
2022-12-13T07:26:28.196Z,987.37
2022-12-13T07:27:28.154Z,987.42
2022-12-13T07:28:28.143Z,987.39
2022-12-13T07:29:28.122Z,987.36
2022-12-13T07:30:28.276Z,987.41
2022-12-13T07:31:28.242Z,987.37
2022-12-13T07:32:28.112Z,987.40
2022-12-13T07:33:28.566Z,987.42
2022-12-13T07:34:28.082Z,987.44
2022-12-13T07:35:28.061Z,987.46
2022-12-13T07:36:28.081Z,987.47
2022-12-13T07:37:30.410Z,987.50
2022-12-13T07:38:28.019Z,987.51
2022-12-13T07:39:28.006Z,987.50
2022-12-13T07:40:28.010Z,987.51
2022-12-13T07:41:28.067Z,987.57
2022-12-13T07:42:27.969Z,987.57
2022-12-13T07:43:27.959Z,987.55
2022-12-13T07:44:27.960Z,987.62
2022-12-13T07:45:28.328Z,987.66
2022-12-13T07:46:33.302Z,987.63
2022-12-13T07:47:29.034Z,987.66
2022-12-13T07:48:27.973Z,987.67
2022-12-13T07:49:28.007Z,987.67
2022-12-13T07:50:27.900Z,987.66
2022-12-13T07:51:28.905Z,987.71
2022-12-13T07:52:27.848Z,987.70
2022-12-13T07:53:27.856Z,987.72
2022-12-13T07:54:28.834Z,987.74
2022-12-13T07:55:33.475Z,987.68
2022-12-13T07:56:28.829Z,987.76
2022-12-13T07:57:27.797Z,987.75
2022-12-13T07:58:27.784Z,987.74
2022-12-13T07:59:28.629Z,987.74
2022-12-13T08:00:27.755Z,987.72
2022-12-13T08:01:27.842Z,987.69
2022-12-13T08:02:27.734Z,987.72
2022-12-13T08:03:27.854Z,987.71
2022-12-13T08:04:28.298Z,987.72
2022-12-13T08:05:27.794Z,987.76
2022-12-13T08:06:27.715Z,987.67
2022-12-13T08:07:27.663Z,987.75
2022-12-13T08:08:30.852Z,987.71
2022-12-13T08:09:27.632Z,987.73
2022-12-13T08:10:27.623Z,987.75
2022-12-13T08:11:28.394Z,987.78
2022-12-13T08:12:27.612Z,987.75
2022-12-13T08:13:27.601Z,987.78
2022-12-13T08:14:27.580Z,987.75
2022-12-13T08:15:27.566Z,987.75
2022-12-13T08:16:29.593Z,987.73
2022-12-13T08:17:27.540Z,987.72
2022-12-13T08:18:27.540Z,987.71
2022-12-13T08:19:27.511Z,987.68
2022-12-13T08:20:27.523Z,987.70
2022-12-13T08:21:52.783Z,987.63
2022-12-13T08:22:28.480Z,987.65
2022-12-13T08:23:28.466Z,987.66
2022-12-13T08:24:27.465Z,987.64
2022-12-13T08:25:27.461Z,987.71
2022-12-13T08:26:27.429Z,987.74
2022-12-13T08:27:27.447Z,987.77
2022-12-13T08:28:27.409Z,987.79
2022-12-13T08:29:34.588Z,987.79
2022-12-13T08:30:28.387Z,987.78
2022-12-13T08:31:27.404Z,987.77
2022-12-13T08:32:28.397Z,987.77
2022-12-13T08:33:27.345Z,987.82
2022-12-13T08:34:27.374Z,987.83
2022-12-13T08:35:33.482Z,987.83
2022-12-13T08:36:28.306Z,987.82
2022-12-13T08:37:27.435Z,987.78
2022-12-13T08:38:27.335Z,987.76
2022-12-13T08:39:27.288Z,987.75
2022-12-13T08:40:27.254Z,987.73
2022-12-13T08:41:27.269Z,987.72
2022-12-13T08:42:28.216Z,987.70
2022-12-13T08:43:27.226Z,987.73
2022-12-13T08:44:27.226Z,987.73
2022-12-13T08:45:27.200Z,987.72
2022-12-13T08:46:27.218Z,987.72
2022-12-13T08:47:27.220Z,987.68
2022-12-13T08:48:27.173Z,987.68
2022-12-13T08:49:27.230Z,987.68
2022-12-13T08:50:27.155Z,987.65
2022-12-13T08:51:32.266Z,987.70
2022-12-13T08:52:28.144Z,987.66
2022-12-13T08:53:29.617Z,987.69
2022-12-13T08:54:31.463Z,987.69
2022-12-13T08:55:31.682Z,987.71
2022-12-13T08:56:28.065Z,987.72
2022-12-13T08:57:27.072Z,987.74
2022-12-13T08:58:27.032Z,987.73
2022-12-13T08:59:27.028Z,987.76
2022-12-13T09:00:27.069Z,987.80
2022-12-13T09:01:27.003Z,987.76
2022-12-13T09:02:27.078Z,987.80
2022-12-13T09:03:26.971Z,987.74
2022-12-13T09:04:31.532Z,987.80
2022-12-13T09:05:33.604Z,987.79
2022-12-13T09:06:27.949Z,987.83
2022-12-13T09:07:26.958Z,987.78
2022-12-13T09:08:27.007Z,987.78
2022-12-13T09:09:27.900Z,987.81
2022-12-13T09:10:27.864Z,987.85
2022-12-13T09:11:35.025Z,987.84
2022-12-13T09:12:30.785Z,987.79
2022-12-13T09:13:31.532Z,987.82
2022-12-13T09:14:33.834Z,987.92
2022-12-13T09:15:27.901Z,987.88
2022-12-13T09:16:27.960Z,987.88
2022-12-13T09:17:28.113Z,987.86
2022-12-13T09:18:33.232Z,987.83
2022-12-13T09:19:28.006Z,987.80
2022-12-13T09:20:29.515Z,987.83
2022-12-13T09:21:31.331Z,987.83
2022-12-13T09:22:33.219Z,987.87
2022-12-13T09:23:28.152Z,987.86
2022-12-13T09:24:27.821Z,987.89
2022-12-13T09:25:26.696Z,987.94
2022-12-13T09:26:26.745Z,987.90
2022-12-13T09:27:27.547Z,987.92
2022-12-13T09:28:26.665Z,987.88
2022-12-13T09:29:26.656Z,987.90
2022-12-13T09:30:31.505Z,987.95
2022-12-13T09:31:27.673Z,987.95
2022-12-13T09:32:26.844Z,988.02
2022-12-13T09:33:29.830Z,987.95
2022-12-13T09:34:26.635Z,988.02
2022-12-13T09:35:26.584Z,988.01
2022-12-13T09:36:26.621Z,987.99
2022-12-13T09:37:27.172Z,987.95
2022-12-13T09:38:26.553Z,988.00
2022-12-13T09:39:26.547Z,987.96
2022-12-13T09:40:26.787Z,987.97
2022-12-13T09:41:28.780Z,987.96
2022-12-13T09:42:30.516Z,987.96
2022-12-13T09:43:31.330Z,987.98
2022-12-13T09:44:32.503Z,988.00
2022-12-13T09:45:32.192Z,987.99
2022-12-13T09:46:26.622Z,987.98
2022-12-13T09:47:27.551Z,987.95
2022-12-13T09:48:27.731Z,987.95
2022-12-13T09:49:26.447Z,987.91
2022-12-13T09:50:27.478Z,987.92
2022-12-13T09:51:43.150Z,987.92
2022-12-13T09:52:33.460Z,987.91
2022-12-13T09:53:33.509Z,987.93
2022-12-13T09:54:27.451Z,987.95
2022-12-13T09:55:26.387Z,987.91
2022-12-13T09:56:26.558Z,987.91
2022-12-13T09:57:32.469Z,987.91
2022-12-13T09:58:27.468Z,987.89
2022-12-13T09:59:26.289Z,987.91
2022-12-13T10:00:26.307Z,987.91
2022-12-13T10:01:26.520Z,987.87
2022-12-13T10:02:26.365Z,987.91
2022-12-13T10:03:26.227Z,987.92
2022-12-13T10:04:26.323Z,987.90
2022-12-13T10:05:33.796Z,987.88
2022-12-13T10:06:27.296Z,987.92
2022-12-13T10:07:26.220Z,987.90
2022-12-13T10:08:26.175Z,987.86
2022-12-13T10:09:26.160Z,987.91
2022-12-13T10:10:26.155Z,987.92
2022-12-13T10:11:32.112Z,987.96
2022-12-13T10:12:27.176Z,987.89
2022-12-13T10:13:26.120Z,987.90
2022-12-13T10:14:26.106Z,987.85
2022-12-13T10:15:26.149Z,987.88
2022-12-13T10:16:26.126Z,987.86
2022-12-13T10:17:26.093Z,987.82
2022-12-13T10:18:26.066Z,987.83
2022-12-13T10:19:29.022Z,987.80
2022-12-13T10:20:26.181Z,987.84
2022-12-13T10:21:26.023Z,987.78
2022-12-13T10:22:26.034Z,987.81
2022-12-13T10:23:59.257Z,987.85
2022-12-13T10:24:33.020Z,987.78
2022-12-13T10:25:26.952Z,987.79
2022-12-13T10:26:25.982Z,987.75
2022-12-13T10:27:25.935Z,987.74
2022-12-13T10:28:25.944Z,987.76
2022-12-13T10:29:25.913Z,987.76
2022-12-13T10:30:28.792Z,987.70
2022-12-13T10:31:25.908Z,987.74
2022-12-13T10:32:25.880Z,987.73
2022-12-13T10:33:26.136Z,987.72
2022-12-13T10:34:25.848Z,987.69
2022-12-13T10:35:25.841Z,987.67
2022-12-13T10:36:26.636Z,987.69
2022-12-13T10:37:25.807Z,987.69
2022-12-13T10:38:31.598Z,987.71
2022-12-13T10:39:26.780Z,987.69
2022-12-13T10:40:32.708Z,987.71
2022-12-13T10:41:26.757Z,987.68
2022-12-13T10:42:30.556Z,987.67
2022-12-13T10:43:27.412Z,987.68
2022-12-13T10:44:25.728Z,987.63
2022-12-13T10:45:25.707Z,987.65
2022-12-13T10:46:25.777Z,987.62
2022-12-13T10:47:25.679Z,987.61
2022-12-13T10:48:25.770Z,987.59
2022-12-13T10:49:26.277Z,987.55
2022-12-13T10:50:25.649Z,987.53
2022-12-13T10:51:25.636Z,987.60
2022-12-13T10:52:30.908Z,987.54
2022-12-13T10:53:26.984Z,987.55
2022-12-13T10:54:25.720Z,987.58
2022-12-13T10:55:25.589Z,987.55
2022-12-13T10:56:25.577Z,987.54
2022-12-13T10:57:25.565Z,987.49
2022-12-13T10:58:25.592Z,987.49
2022-12-13T10:59:25.548Z,987.52
2022-12-13T11:00:25.541Z,987.44
2022-12-13T11:01:25.574Z,987.42
2022-12-13T11:02:25.552Z,987.41
2022-12-13T11:03:25.968Z,987.37
2022-12-13T11:04:28.125Z,987.38
2022-12-13T11:05:25.621Z,987.34
2022-12-13T11:06:25.544Z,987.35
2022-12-13T11:07:25.994Z,987.34
2022-12-13T11:08:25.593Z,987.30
2022-12-13T11:09:25.411Z,987.33
2022-12-13T11:10:27.580Z,987.34
2022-12-13T11:11:25.402Z,987.31
2022-12-13T11:12:25.372Z,987.25
2022-12-13T11:13:25.683Z,987.25
2022-12-13T11:14:32.213Z,987.25
2022-12-13T11:15:26.340Z,987.24
2022-12-13T11:16:25.415Z,987.24
2022-12-13T11:17:25.333Z,987.19
2022-12-13T11:18:25.571Z,987.24
2022-12-13T11:19:25.592Z,987.20
2022-12-13T11:20:25.277Z,987.19
2022-12-13T11:21:25.272Z,987.22
2022-12-13T11:22:25.266Z,987.23
2022-12-13T11:23:25.540Z,987.15
2022-12-13T11:24:26.090Z,987.16
2022-12-13T11:25:25.209Z,987.12
2022-12-13T11:26:25.202Z,987.15
2022-12-13T11:27:25.200Z,987.08
2022-12-13T11:28:27.119Z,987.08
2022-12-13T11:29:26.336Z,987.09
2022-12-13T11:30:25.167Z,987.07
2022-12-13T11:31:25.740Z,987.07
2022-12-13T11:32:25.805Z,987.06
2022-12-13T11:33:25.189Z,987.06
2022-12-13T11:34:25.208Z,987.02
2022-12-13T11:35:25.109Z,987.04
2022-12-13T11:36:25.089Z,986.96
2022-12-13T11:37:25.074Z,986.97
2022-12-13T11:38:25.476Z,986.98
2022-12-13T11:39:25.958Z,986.96
2022-12-13T11:40:25.066Z,986.96
2022-12-13T11:41:32.435Z,986.92
2022-12-13T11:42:26.045Z,986.94
2022-12-13T11:43:25.011Z,986.89
2022-12-13T11:44:25.756Z,986.90
2022-12-13T11:45:25.007Z,986.89
2022-12-13T11:46:24.987Z,986.85
2022-12-13T11:47:25.145Z,986.85
2022-12-13T11:48:25.356Z,986.82
2022-12-13T11:49:25.726Z,986.82
2022-12-13T11:50:33.202Z,986.81
2022-12-13T11:51:26.052Z,986.73
2022-12-13T11:52:24.883Z,986.78
2022-12-13T11:53:25.193Z,986.73
2022-12-13T11:54:24.855Z,986.72
2022-12-13T11:55:25.181Z,986.67
2022-12-13T11:56:25.920Z,986.67
2022-12-13T11:57:25.052Z,986.67
2022-12-13T11:59:00.622Z,986.66
2022-12-13T11:59:27.326Z,986.65
2022-12-13T12:00:33.286Z,986.64
2022-12-13T12:01:25.781Z,986.64
2022-12-13T12:02:24.807Z,986.65
2022-12-13T12:03:25.212Z,986.64
2022-12-13T12:04:24.821Z,986.66
2022-12-13T12:05:24.863Z,986.62
2022-12-13T12:06:24.705Z,986.64
2022-12-13T12:07:32.982Z,986.61
2022-12-13T12:08:31.563Z,986.62
2022-12-13T12:09:25.659Z,986.64
2022-12-13T12:10:24.669Z,986.59
2022-12-13T12:11:25.080Z,986.53
2022-12-13T12:12:24.620Z,986.59
2022-12-13T12:13:24.640Z,986.52
2022-12-13T12:14:24.587Z,986.53
2022-12-13T12:15:26.630Z,986.57
2022-12-13T12:16:24.612Z,986.56
2022-12-13T12:17:24.566Z,986.57
2022-12-13T12:18:25.019Z,986.62
2022-12-13T12:19:24.538Z,986.61
2022-12-13T12:20:24.682Z,986.56
2022-12-13T12:21:37.325Z,986.68
2022-12-13T12:22:25.486Z,986.64
2022-12-13T12:23:24.625Z,986.60
2022-12-13T12:24:24.476Z,986.71
2022-12-13T12:25:24.457Z,986.70
2022-12-13T12:26:24.440Z,986.66
2022-12-13T12:27:24.765Z,986.69
2022-12-13T12:28:24.704Z,986.65
2022-12-13T12:29:24.452Z,986.63